Time;durP1;ratioP1;P1;durP2;ratioP2;P2;SDS_P1;SDS_P2;PMS_P1;PMS_P2;Temp;Humidity;BMP_temperature;BMP_pressure;BME280_temperature;BME280_humidity;BME280_pressure;Samples;Min_cycle;Max_cycle;Signal;HPM_P1;HPM_P2
2023/09/03 00:00:54;;;;;;;8.70;2.50;;;;;;;20.63;66.04;100152.31;5002695;28;20078;-91
2023/09/03 00:03:19;;;;;;;14.75;2.53;;;;;;;20.64;65.77;100151.38;5001758;28;20026;-92
2023/09/03 00:05:53;;;;;;;10.00;2.40;;;;;;;20.60;66.58;100152.44;5001386;28;20400;-91
2023/09/03 00:08:20;;;;;;;11.07;2.50;;;;;;;20.58;66.53;100148.97;5003349;28;20026;-91
2023/09/03 00:10:53;;;;;;;8.82;2.38;;;;;;;20.60;66.12;100154.25;5006225;28;20383;-92
2023/09/03 00:13:19;;;;;;;9.75;2.72;;;;;;;20.55;66.46;100149.13;5004961;28;20394;-91
2023/09/03 00:15:45;;;;;;;9.00;2.70;;;;;;;20.51;66.90;100139.50;5005372;28;20073;-91
2023/09/03 00:18:14;;;;;;;12.95;2.85;;;;;;;20.54;66.70;100146.53;5002615;28;20479;-91
2023/09/03 00:20:41;;;;;;;8.30;2.58;;;;;;;20.55;66.82;100138.41;5005350;28;20585;-91
2023/09/03 00:23:06;;;;;;;11.70;2.90;;;;;;;20.57;66.70;100141.88;5005641;28;20022;-91
2023/09/03 00:25:36;;;;;;;6.77;2.60;;;;;;;20.57;66.44;100133.88;5005904;28;20522;-91
2023/09/03 00:28:02;;;;;;;7.82;2.13;;;;;;;20.61;66.53;100140.78;4985071;28;20023;-90
2023/09/03 00:30:27;;;;;;;9.87;2.70;;;;;;;20.62;66.37;100134.53;5003626;28;20125;-91
2023/09/03 00:32:52;;;;;;;10.95;2.83;;;;;;;20.64;66.17;100137.13;5007561;28;20118;-90
2023/09/03 00:35:18;;;;;;;6.77;2.10;;;;;;;20.66;66.52;100135.22;5005482;28;20045;-89
2023/09/03 00:37:43;;;;;;;13.60;3.10;;;;;;;20.67;66.95;100142.31;5003872;28;20033;-91
2023/09/03 00:40:10;;;;;;;9.80;2.47;;;;;;;20.69;66.34;100144.94;5003645;28;20510;-91
2023/09/03 00:42:35;;;;;;;8.77;2.53;;;;;;;20.72;66.32;100147.47;5004095;28;20021;-90
2023/09/03 00:45:01;;;;;;;12.53;2.80;;;;;;;20.74;66.12;100137.53;5004954;28;20022;-90
2023/09/03 00:47:26;;;;;;;9.73;2.70;;;;;;;20.74;66.28;100140.22;5006698;28;20101;-90
2023/09/03 00:49:52;;;;;;;10.40;2.90;;;;;;;20.71;66.29;100141.22;5004569;28;20297;-91
2023/09/03 00:52:19;;;;;;;8.30;2.63;;;;;;;20.61;67.35;100143.47;5003005;28;20030;-91
2023/09/03 00:54:45;;;;;;;8.98;2.70;;;;;;;20.63;67.07;100141.63;5003584;28;20022;-92
2023/09/03 00:57:11;;;;;;;8.98;2.70;;;;;;;20.65;67.07;100138.84;5003935;28;20038;-91
2023/09/03 00:59:37;;;;;;;7.95;2.85;;;;;;;20.68;66.70;100149.41;5002336;28;20030;-90
2023/09/03 01:02:03;;;;;;;8.17;2.83;;;;;;;20.64;67.43;100148.69;5004103;28;20026;-91
2023/09/03 01:04:28;;;;;;;10.95;3.25;;;;;;;20.59;67.71;100147.19;5004367;28;20114;-91
2023/09/03 01:06:54;;;;;;;8.43;2.33;;;;;;;20.53;67.90;100155.50;5004706;28;20113;-92
2023/09/03 01:09:19;;;;;;;9.82;2.65;;;;;;;20.50;68.21;100157.38;5005019;28;20121;-92
2023/09/03 01:12:08;;;;;;;9.60;2.73;;;;;;;20.49;68.36;100170.81;5004421;28;20129;-92
2023/09/03 01:14:55;;;;;;;7.80;2.60;;;;;;;20.50;67.85;100178.78;5005399;28;20030;-91
2023/09/03 01:18:03;;;;;;;8.77;2.47;;;;;;;20.49;68.24;100187.72;5004692;28;20056;-92
2023/09/03 01:20:38;;;;;;;8.65;2.80;;;;;;;20.46;68.12;100187.88;4993758;28;20053;-93
2023/09/03 01:23:41;;;;;;;10.07;2.75;;;;;;;20.52;68.20;100184.03;4988533;28;20072;-91
2023/09/03 01:26:56;;;;;;;9.52;2.20;;;;;;;20.46;68.04;100181.66;5000282;28;20460;-92
2023/09/03 01:29:24;;;;;;;7.45;2.30;;;;;;;20.45;67.89;100180.78;5003007;28;20109;-92
2023/09/03 01:31:50;;;;;;;8.97;2.27;;;;;;;20.46;67.87;100181.66;5005927;28;20018;-93
2023/09/03 01:34:16;;;;;;;8.30;2.15;;;;;;;20.45;67.43;100191.47;5006281;28;20036;-92
2023/09/03 01:36:42;;;;;;;10.32;2.20;;;;;;;20.44;67.19;100197.78;5004495;28;20026;-93
2023/09/03 01:39:07;;;;;;;7.67;1.93;;;;;;;20.47;67.09;100188.75;5005554;28;20030;-91
2023/09/03 01:41:35;;;;;;;8.43;2.53;;;;;;;20.46;67.25;100195.03;5003633;28;20022;-92
2023/09/03 01:44:02;;;;;;;9.07;2.50;;;;;;;20.42;67.30;100186.28;4992510;28;20031;-92
2023/09/03 01:46:36;;;;;;;6.82;2.30;;;;;;;20.42;66.90;100201.47;5003023;28;20033;-92
2023/09/03 01:49:20;;;;;;;10.40;2.40;;;;;;;20.42;66.79;100206.81;4990505;28;20056;-93
2023/09/03 01:51:48;;;;;;;11.77;2.20;;;;;;;20.42;67.11;100210.34;5002476;28;20026;-93
2023/09/03 01:54:40;;;;;;;9.73;2.42;;;;;;;20.40;67.06;100208.72;5002836;28;20026;-93
2023/09/03 01:57:34;;;;;;;7.17;2.30;;;;;;;20.37;67.42;100215.91;5002515;28;20037;-93
2023/09/03 02:00:07;;;;;;;7.47;2.10;;;;;;;20.42;66.85;100217.53;5002209;28;20038;-92
2023/09/03 02:02:33;;;;;;;12.52;2.38;;;;;;;20.43;66.58;100219.25;5001027;28;20026;-92
2023/09/03 02:04:59;;;;;;;11.23;2.22;;;;;;;20.46;66.72;100219.13;5001397;28;20027;-93
2023/09/03 02:07:24;;;;;;;7.40;2.27;;;;;;;20.39;66.87;100226.53;5000028;28;20027;-92
2023/09/03 02:09:50;;;;;;;7.40;2.00;;;;;;;20.41;67.08;100215.78;4999608;28;20022;-94
2023/09/03 02:12:23;;;;;;;9.63;2.53;;;;;;;20.42;66.83;100213.03;4999648;28;20353;-93
2023/09/03 02:14:49;;;;;;;10.45;2.50;;;;;;;20.37;67.60;100212.38;4999364;28;20022;-92
2023/09/03 02:17:19;;;;;;;7.77;2.30;;;;;;;20.37;67.41;100202.53;4999809;28;20030;-92
2023/09/03 02:19:46;;;;;;;10.85;2.53;;;;;;;20.36;67.64;100205.28;4999431;28;20126;-93
2023/09/03 02:22:11;;;;;;;9.50;2.13;;;;;;;20.32;67.86;100198.34;4999613;28;20026;-93
2023/09/03 02:24:37;;;;;;;8.23;2.40;;;;;;;20.26;67.90;100202.16;4986799;28;20045;-92
2023/09/03 02:27:02;;;;;;;11.60;2.63;;;;;;;20.26;68.21;100198.66;4999633;28;20030;-92
2023/09/03 02:29:28;;;;;;;8.60;2.38;;;;;;;20.21;68.42;100198.84;4999175;28;20061;-91
2023/09/03 02:31:53;;;;;;;9.73;2.40;;;;;;;20.19;68.55;100195.38;4997496;28;20053;-89
2023/09/03 02:34:18;;;;;;;8.40;2.50;;;;;;;20.15;68.53;100196.47;4998924;28;20427;-92
2023/09/03 02:36:44;;;;;;;9.70;2.30;;;;;;;20.16;68.66;100203.53;4998865;28;20072;-89
2023/09/03 02:39:09;;;;;;;7.63;2.47;;;;;;;20.13;68.44;100207.22;4999051;28;20026;-90
2023/09/03 02:41:35;;;;;;;7.57;2.30;;;;;;;20.13;68.22;100196.50;4998722;28;20179;-92
2023/09/03 02:44:01;;;;;;;7.77;2.20;;;;;;;20.14;68.59;100194.72;4998474;28;20033;-89
2023/09/03 02:46:27;;;;;;;8.57;1.92;;;;;;;20.10;68.30;100201.13;4998265;28;20048;-90
2023/09/03 02:48:53;;;;;;;8.50;1.90;;;;;;;20.13;68.28;100200.97;4998270;28;20124;-89
2023/09/03 02:51:18;;;;;;;7.90;2.33;;;;;;;20.12;68.62;100202.81;4998282;28;20030;-90
2023/09/03 02:53:45;;;;;;;10.27;2.10;;;;;;;20.14;68.12;100202.75;4996575;28;20041;-89
2023/09/03 02:56:14;;;;;;;8.40;2.10;;;;;;;20.16;68.31;100206.22;4998146;28;20031;-90
2023/09/03 02:58:46;;;;;;;6.55;1.48;;;;;;;20.17;68.32;100207.94;4997824;28;20030;-90
2023/09/03 03:01:14;;;;;;;11.30;2.47;;;;;;;20.16;67.96;100206.22;4997817;28;20415;-90
2023/09/03 03:03:40;;;;;;;10.47;2.17;;;;;;;20.15;68.26;100209.81;4997898;28;20057;-90
2023/09/03 03:06:06;;;;;;;7.35;2.20;;;;;;;20.13;68.44;100203.66;4998251;28;20033;-90
2023/09/03 03:08:31;;;;;;;7.77;2.13;;;;;;;20.11;68.25;100219.78;4997949;28;20117;-90
2023/09/03 03:11:06;;;;;;;10.77;2.42;;;;;;;20.08;68.36;100207.41;4997460;28;20109;-89
2023/09/03 03:13:31;;;;;;;8.97;2.43;;;;;;;20.09;67.96;100194.91;4997791;28;20107;-90
2023/09/03 03:15:57;;;;;;;7.90;2.20;;;;;;;20.08;67.94;100209.22;4997457;28;20030;-90
2023/09/03 03:18:22;;;;;;;9.73;2.53;;;;;;;20.07;68.48;100213.69;4997634;28;20646;-90
2023/09/03 03:20:47;;;;;;;7.23;2.10;;;;;;;20.04;68.20;100213.81;4997995;28;20026;-91
2023/09/03 03:23:13;;;;;;;7.90;2.03;;;;;;;19.94;68.55;100209.84;4999463;28;20428;-89
2023/09/03 03:25:38;;;;;;;8.43;2.10;;;;;;;19.93;68.50;100224.13;5001486;28;20077;-90
2023/09/03 03:28:04;;;;;;;8.43;2.10;;;;;;;19.90;68.55;100226.91;5001760;28;20025;-89
2023/09/03 03:30:30;;;;;;;12.73;2.83;;;;;;;19.86;68.28;100225.28;5001509;28;20073;-89
2023/09/03 03:32:55;;;;;;;6.87;1.77;;;;;;;19.85;68.36;100224.44;5001962;28;20030;-90
2023/09/03 03:35:21;;;;;;;7.65;2.30;;;;;;;19.81;68.53;100222.84;5000145;28;20038;-90
2023/09/03 03:37:46;;;;;;;8.17;2.00;;;;;;;19.74;68.59;100224.91;4996042;28;20056;-89
2023/09/03 03:40:11;;;;;;;6.50;1.70;;;;;;;19.78;68.43;100226.50;4997002;28;20027;-89
2023/09/03 03:42:37;;;;;;;8.40;1.93;;;;;;;19.76;68.05;100225.69;4996198;28;20053;-89
2023/09/03 03:45:02;;;;;;;9.00;2.40;;;;;;;19.72;68.27;100217.88;4997539;28;20050;-90
2023/09/03 03:47:28;;;;;;;8.52;2.00;;;;;;;19.72;68.27;100225.88;4997201;28;20029;-89
2023/09/03 03:49:53;;;;;;;10.83;2.47;;;;;;;19.64;68.28;100226.22;4997536;28;20038;-90
2023/09/03 03:52:19;;;;;;;9.67;2.30;;;;;;;19.57;68.34;100235.44;4997282;28;20495;-87
2023/09/03 03:54:44;;;;;;;9.80;2.07;;;;;;;19.57;68.56;100241.66;4996933;28;20499;-89
2023/09/03 03:57:09;;;;;;;9.95;1.95;;;;;;;19.56;68.48;100242.59;4997063;28;20022;-90
2023/09/03 03:59:36;;;;;;;10.63;2.03;;;;;;;19.56;68.47;100241.72;4997221;28;20125;-89
2023/09/03 04:02:01;;;;;;;8.18;2.30;;;;;;;19.54;68.57;100235.56;4997329;28;20022;-88
2023/09/03 04:04:27;;;;;;;10.00;2.40;;;;;;;19.56;68.39;100255.06;4997422;28;20082;-88
2023/09/03 04:06:52;;;;;;;6.83;2.50;;;;;;;19.54;68.35;100251.59;4997570;28;20074;-89
2023/09/03 04:09:17;;;;;;;7.67;1.90;;;;;;;19.59;68.07;100257.59;4997393;28;20436;-89
2023/09/03 04:11:43;;;;;;;8.80;2.50;;;;;;;19.57;68.24;100256.78;4996953;28;20100;-89
2023/09/03 04:14:08;;;;;;;7.68;2.50;;;;;;;19.58;68.37;100255.88;4996009;28;20029;-89
2023/09/03 04:16:33;;;;;;;9.17;2.40;;;;;;;19.55;68.44;100250.66;4997222;28;20030;-91
2023/09/03 04:18:59;;;;;;;9.33;2.00;;;;;;;19.54;68.35;100262.28;4997600;28;20491;-91
2023/09/03 04:21:24;;;;;;;9.73;2.30;;;;;;;19.56;68.32;100265.75;4997341;28;20058;-91
2023/09/03 04:23:50;;;;;;;6.33;2.03;;;;;;;19.54;68.49;100272.97;4997503;28;20029;-91
2023/09/03 04:26:15;;;;;;;8.73;2.20;;;;;;;19.58;68.30;100274.56;4997051;28;20033;-90
2023/09/03 04:28:41;;;;;;;7.97;2.40;;;;;;;19.57;68.29;100270.16;4997473;28;20037;-90
2023/09/03 04:31:09;;;;;;;8.90;2.40;;;;;;;19.56;68.40;100260.41;4995603;28;20026;-90
2023/09/03 04:33:36;;;;;;;7.70;2.63;;;;;;;19.56;68.46;100271.09;4997051;28;20027;-89
2023/09/03 04:36:03;;;;;;;10.02;2.65;;;;;;;19.55;68.84;100269.34;4996944;28;20395;-89
2023/09/03 04:38:28;;;;;;;13.40;2.80;;;;;;;19.50;68.95;100256.19;4997089;28;20030;-88
2023/09/03 04:40:54;;;;;;;9.57;2.50;;;;;;;19.51;68.96;100249.91;4996797;28;20161;-88
2023/09/03 04:43:20;;;;;;;9.15;2.58;;;;;;;19.51;68.80;100248.13;4996996;28;20027;-89
2023/09/03 04:45:47;;;;;;;8.37;2.23;;;;;;;19.54;68.69;100244.47;4997746;28;20031;-88
2023/09/03 04:48:13;;;;;;;8.17;2.80;;;;;;;19.57;68.40;100247.00;4999699;28;20261;-88
2023/09/03 04:50:39;;;;;;;8.68;2.38;;;;;;;19.54;68.75;100240.91;4997888;28;20030;-89
2023/09/03 04:53:04;;;;;;;10.82;2.80;;;;;;;19.51;68.92;100231.19;4997036;28;20033;-88
2023/09/03 04:55:33;;;;;;;8.63;2.87;;;;;;;19.47;69.78;100232.28;4998773;28;20495;-89
2023/09/03 04:57:59;;;;;;;8.48;2.45;;;;;;;19.46;69.46;100233.22;5000743;28;20026;-90
2023/09/03 05:00:24;;;;;;;10.03;2.80;;;;;;;19.48;69.45;100236.69;5000573;28;20022;-89
2023/09/03 05:02:50;;;;;;;8.87;3.70;;;;;;;19.47;69.96;100234.94;5000572;28;20391;-91
2023/09/03 05:05:17;;;;;;;9.83;3.77;;;;;;;19.41;70.38;100225.41;5000485;28;20344;-90
2023/09/03 05:07:43;;;;;;;8.55;3.15;;;;;;;19.42;70.47;100229.81;5000435;28;20030;-90
2023/09/03 05:10:09;;;;;;;10.57;3.47;;;;;;;19.39;70.92;100237.94;4999096;28;20033;-89
2023/09/03 05:12:34;;;;;;;9.60;3.67;;;;;;;19.47;70.62;100227.81;5000416;28;20052;-89
2023/09/03 05:14:59;;;;;;;7.90;3.53;;;;;;;19.44;70.97;100229.72;5000532;28;20488;-89
2023/09/03 05:17:25;;;;;;;10.50;3.53;;;;;;;19.45;70.79;100232.34;4999954;28;20069;-88
2023/09/03 05:19:50;;;;;;;10.17;3.10;;;;;;;19.46;70.86;100223.41;5002901;28;20057;-88
2023/09/03 05:22:16;;;;;;;10.50;3.70;;;;;;;19.46;70.78;100228.75;5004491;28;20085;-86
2023/09/03 05:24:42;;;;;;;9.05;3.50;;;;;;;19.46;70.82;100220.75;5006835;28;20023;-88
2023/09/03 05:27:07;;;;;;;8.13;3.40;;;;;;;19.46;70.80;100231.41;5016041;28;20033;-88
2023/09/03 05:29:33;;;;;;;12.52;3.90;;;;;;;19.46;71.13;100220.75;5009799;28;20165;-90
2023/09/03 05:31:58;;;;;;;10.03;3.53;;;;;;;19.46;71.35;100227.88;5002812;28;20108;-89
2023/09/03 05:34:24;;;;;;;8.13;3.80;;;;;;;19.45;71.32;100227.00;5001628;28;20372;-89
2023/09/03 05:36:50;;;;;;;12.55;3.58;;;;;;;19.45;71.58;100229.69;5004132;28;20028;-87
2023/09/03 05:39:15;;;;;;;10.20;3.63;;;;;;;19.46;71.28;100234.09;5003030;28;20049;-87
2023/09/03 05:41:44;;;;;;;12.47;3.80;;;;;;;19.43;71.72;100234.22;5002372;28;20022;-88
2023/09/03 05:44:11;;;;;;;10.10;4.05;;;;;;;19.46;71.40;100233.22;5002347;28;20030;-89
2023/09/03 05:46:36;;;;;;;12.40;3.88;;;;;;;19.47;71.76;100226.94;4999635;28;20030;-89
2023/09/03 05:49:02;;;;;;;8.63;3.47;;;;;;;19.46;71.69;100230.53;5000613;28;20492;-88
2023/09/03 05:51:27;;;;;;;9.80;3.42;;;;;;;19.45;71.84;100237.69;5008848;28;20022;-87
2023/09/03 05:53:53;;;;;;;10.07;3.93;;;;;;;19.43;71.87;100231.56;5000109;28;20587;-88
2023/09/03 05:56:19;;;;;;;9.35;3.80;;;;;;;19.46;72.07;100223.41;4999471;28;20028;-88
2023/09/03 05:58:45;;;;;;;8.20;3.33;;;;;;;19.48;72.00;100226.00;5010824;28;20033;-87
2023/09/03 06:01:11;;;;;;;9.70;3.40;;;;;;;19.53;71.93;100217.81;5013201;28;20023;-87
2023/09/03 06:03:38;;;;;;;11.37;4.00;;;;;;;19.51;71.87;100216.06;5007628;28;20034;-89
2023/09/03 06:06:10;;;;;;;7.63;4.00;;;;;;;19.55;72.05;100205.25;5000952;28;20411;-88
2023/09/03 06:08:37;;;;;;;6.97;3.17;;;;;;;19.54;71.67;100211.53;4998377;28;20038;-87
2023/09/03 06:11:03;;;;;;;9.70;3.70;;;;;;;19.59;71.70;100217.53;4999110;28;20029;-87
2023/09/03 06:13:31;;;;;;;8.73;3.97;;;;;;;19.60;71.56;100213.94;4999087;28;20042;-89
2023/09/03 06:15:57;;;;;;;11.00;4.10;;;;;;;19.65;71.47;100217.25;4999055;28;20034;-88
2023/09/03 06:18:23;;;;;;;10.88;4.28;;;;;;;19.67;71.68;100215.44;4996942;28;20033;-89
2023/09/03 06:20:49;;;;;;;9.60;4.30;;;;;;;19.68;71.74;100202.91;4999088;28;20491;-86
2023/09/03 06:23:18;;;;;;;10.95;3.97;;;;;;;19.69;71.70;100218.91;4997508;28;20053;-87
2023/09/03 06:25:45;;;;;;;10.00;3.63;;;;;;;19.69;71.62;100224.25;4997649;28;20495;-87
2023/09/03 06:28:10;;;;;;;7.93;3.70;;;;;;;19.69;71.85;100234.94;4999257;28;20053;-88
2023/09/03 06:30:36;;;;;;;10.20;4.05;;;;;;;19.71;71.75;100238.41;4998820;28;20082;-87
2023/09/03 06:33:02;;;;;;;11.70;3.80;;;;;;;19.76;71.48;100223.03;4998849;28;20037;-86
2023/09/03 06:35:27;;;;;;;9.68;4.28;;;;;;;19.80;71.40;100238.00;4998770;28;20040;-86
2023/09/03 06:37:52;;;;;;;9.57;3.40;;;;;;;19.83;71.27;100239.66;4998860;28;20410;-85
2023/09/03 06:40:18;;;;;;;11.97;4.13;;;;;;;19.89;71.19;100246.53;4997089;28;20513;-88
2023/09/03 06:42:43;;;;;;;9.17;4.43;;;;;;;19.91;71.40;100248.25;4998759;28;20025;-83
2023/09/03 06:45:10;;;;;;;9.07;3.63;;;;;;;19.98;70.75;100250.66;4998247;28;20034;-83
2023/09/03 06:47:36;;;;;;;8.57;3.50;;;;;;;20.01;70.83;100246.03;4998707;28;20027;-81
2023/09/03 06:50:01;;;;;;;8.40;3.60;;;;;;;20.05;70.57;100247.63;4998401;28;20034;-94
2023/09/03 06:52:27;;;;;;;11.60;4.00;;;;;;;20.06;70.75;100270.75;4998921;28;20109;-89
2023/09/03 06:54:52;;;;;;;9.40;4.37;;;;;;;20.06;70.72;100273.44;4998497;28;20089;-94
2023/09/03 06:57:19;;;;;;;8.67;4.20;;;;;;;20.03;71.12;100267.38;4998186;28;20406;-93
2023/09/03 06:59:44;;;;;;;9.95;4.10;;;;;;;20.16;70.54;100265.88;4997881;28;20038;-88
2023/09/03 07:02:10;;;;;;;8.87;3.47;;;;;;;20.21;70.63;100263.88;4997938;28;20092;-91
2023/09/03 07:04:35;;;;;;;9.35;3.90;;;;;;;20.24;70.46;100278.91;4998502;28;20033;-88
2023/09/03 07:07:04;;;;;;;11.37;3.83;;;;;;;20.27;70.56;100280.59;4998321;28;20030;-91
2023/09/03 07:09:32;;;;;;;10.00;3.88;;;;;;;20.35;69.96;100281.97;4997841;28;20062;-89
2023/09/03 07:11:59;;;;;;;11.85;4.05;;;;;;;20.43;70.12;100288.81;4997881;28;20046;-87
2023/09/03 07:14:24;;;;;;;11.07;4.27;;;;;;;20.51;69.83;100283.97;4998195;28;20065;-86
2023/09/03 07:16:50;;;;;;;10.80;3.85;;;;;;;20.56;69.63;100281.94;4999589;28;20026;-85
2023/09/03 07:19:15;;;;;;;8.57;4.00;;;;;;;20.68;69.34;100290.34;4997142;28;20473;-88
2023/09/03 07:21:40;;;;;;;8.30;3.73;;;;;;;20.79;69.44;100290.72;4999655;28;20057;-84
2023/09/03 07:24:06;;;;;;;10.17;3.57;;;;;;;20.89;68.79;100292.06;5000347;28;20030;-91
2023/09/03 07:26:31;;;;;;;9.53;3.40;;;;;;;20.97;68.95;100277.44;5000282;28;20290;-78
2023/09/03 07:28:57;;;;;;;10.50;3.80;;;;;;;21.00;68.87;100271.94;4997833;28;20030;-77
2023/09/03 07:31:22;;;;;;;8.83;3.80;;;;;;;21.05;68.43;100283.31;4997629;28;20031;-76
2023/09/03 07:33:48;;;;;;;11.43;3.75;;;;;;;21.06;68.83;100283.25;4997685;28;20157;-81
2023/09/03 07:36:13;;;;;;;9.77;3.60;;;;;;;21.14;68.45;100290.91;4997820;28;20076;-79
2023/09/03 07:38:39;;;;;;;11.70;3.93;;;;;;;21.15;68.50;100292.66;4996436;28;20030;-80
2023/09/03 07:41:04;;;;;;;9.07;3.50;;;;;;;21.22;68.56;100295.91;4997164;28;20030;-81
2023/09/03 07:43:29;;;;;;;9.70;3.70;;;;;;;21.25;68.38;100290.41;4997553;28;20510;-81
2023/09/03 07:45:55;;;;;;;10.43;3.53;;;;;;;21.31;68.06;100290.09;4997356;28;20091;-82
2023/09/03 07:48:21;;;;;;;11.17;3.53;;;;;;;21.34;68.11;100281.03;4997435;28;20097;-81
2023/09/03 07:50:46;;;;;;;9.25;3.75;;;;;;;21.37;68.36;100280.91;4997532;28;20061;-81
2023/09/03 07:53:12;;;;;;;9.90;3.67;;;;;;;21.42;68.22;100269.94;4997221;28;20030;-82
2023/09/03 07:55:37;;;;;;;10.35;3.50;;;;;;;21.42;68.05;100265.47;4997129;28;20033;-82
2023/09/03 07:58:03;;;;;;;10.70;3.30;;;;;;;21.44;68.19;100268.94;4997279;28;20042;-83
2023/09/03 08:00:29;;;;;;;10.67;3.73;;;;;;;21.50;67.98;100257.91;4997220;28;20031;-82
2023/09/03 08:02:54;;;;;;;10.15;3.67;;;;;;;21.56;67.60;100269.25;4997333;28;20097;-82
2023/09/03 08:05:19;;;;;;;7.60;3.00;;;;;;;21.58;67.46;100283.44;4997278;28;20507;-81
2023/09/03 08:07:45;;;;;;;9.07;3.67;;;;;;;21.68;67.10;100289.22;4997117;28;20073;-82
2023/09/03 08:10:11;;;;;;;13.07;3.90;;;;;;;21.75;66.87;100286.16;4997196;28;20038;-82
2023/09/03 08:12:36;;;;;;;8.60;3.53;;;;;;;21.79;67.21;100286.88;4997080;28;20451;-82
2023/09/03 08:15:02;;;;;;;10.33;3.30;;;;;;;21.85;66.67;100291.09;4997399;28;20041;-82
2023/09/03 08:17:31;;;;;;;9.43;3.38;;;;;;;22.05;66.15;100296.25;4994240;28;20050;-82
2023/09/03 08:19:56;;;;;;;8.05;3.25;;;;;;;22.17;65.70;100275.13;4997205;28;20041;-81
2023/09/03 08:22:22;;;;;;;11.87;3.80;;;;;;;22.39;65.46;100274.00;4997244;28;20391;-81
2023/09/03 08:24:47;;;;;;;7.70;3.43;;;;;;;22.70;64.92;100275.91;4996858;28;20057;-81
2023/09/03 08:27:12;;;;;;;10.43;3.20;;;;;;;22.97;63.78;100274.47;4997061;28;20053;-82
2023/09/03 08:29:38;;;;;;;9.70;3.00;;;;;;;23.04;63.54;100265.97;4998590;28;20305;-81
2023/09/03 08:32:03;;;;;;;9.07;2.83;;;;;;;23.04;63.68;100265.97;5000926;28;20070;-82
2023/09/03 08:34:29;;;;;;;8.10;3.07;;;;;;;22.90;63.84;100261.38;5001031;28;20034;-81
2023/09/03 08:36:54;;;;;;;8.27;2.70;;;;;;;22.87;63.43;100260.69;5000861;28;20025;-81
2023/09/03 08:39:20;;;;;;;7.87;2.70;;;;;;;22.75;63.29;100275.66;5000776;28;20165;-80
2023/09/03 08:41:46;;;;;;;11.37;3.30;;;;;;;22.78;63.55;100279.03;5000975;28;20029;-81
2023/09/03 08:44:22;;;;;;;9.32;2.80;;;;;;;22.79;63.62;100282.59;5000613;28;20030;-80
2023/09/03 08:46:51;;;;;;;11.50;2.75;;;;;;;22.78;63.63;100265.63;4996413;28;20035;-80
2023/09/03 08:49:17;;;;;;;7.72;2.60;;;;;;;22.88;63.24;100255.25;5000782;28;20364;-81
2023/09/03 08:51:43;;;;;;;7.00;2.50;;;;;;;22.94;63.38;100264.78;4999288;28;20034;-81
2023/09/03 08:54:09;;;;;;;10.00;2.70;;;;;;;23.13;62.90;100267.28;5000878;28;20109;-80
2023/09/03 08:56:35;;;;;;;7.05;2.22;;;;;;;23.27;62.39;100262.94;5000159;28;20113;-82
2023/09/03 08:59:00;;;;;;;7.70;2.27;;;;;;;23.37;62.34;100266.84;4999322;28;20041;-80
2023/09/03 09:01:29;;;;;;;8.37;2.27;;;;;;;23.44;61.46;100264.69;5000440;28;20517;-80
2023/09/03 09:03:59;;;;;;;7.82;2.13;;;;;;;23.48;61.19;100267.09;4999252;28;20026;-81
2023/09/03 09:06:25;;;;;;;7.32;2.33;;;;;;;23.50;60.79;100273.25;5000440;28;20042;-82
2023/09/03 09:08:52;;;;;;;6.93;2.27;;;;;;;23.67;60.06;100282.16;5000538;28;20022;-81
2023/09/03 09:11:19;;;;;;;8.03;2.07;;;;;;;23.89;59.73;100295.19;4999853;28;20297;-80
2023/09/03 09:13:55;;;;;;;8.27;1.95;;;;;;;24.18;58.92;100299.78;5000109;28;20031;-81
2023/09/03 09:16:21;;;;;;;7.88;1.98;;;;;;;24.49;58.34;100297.94;5000023;28;20031;-81
2023/09/03 09:18:46;;;;;;;8.40;2.20;;;;;;;24.64;57.08;100301.50;4997727;28;20033;-81
2023/09/03 09:21:12;;;;;;;7.75;1.70;;;;;;;24.64;54.92;100290.72;4999972;28;20026;-81
2023/09/03 09:23:37;;;;;;;8.53;2.37;;;;;;;24.61;56.52;100297.16;4999916;28;20521;-81
2023/09/03 09:26:15;;;;;;;5.57;2.10;;;;;;;24.56;56.77;100303.78;4999989;28;20042;-81
2023/09/03 09:28:56;;;;;;;8.82;2.15;;;;;;;24.56;55.55;100301.97;5000113;28;20387;-81
2023/09/03 09:31:26;;;;;;;6.53;2.10;;;;;;;24.68;55.77;100297.63;4999843;28;20073;-80
2023/09/03 09:33:52;;;;;;;6.85;2.20;;;;;;;24.84;55.60;100318.22;4999897;28;20033;-81
2023/09/03 09:36:17;;;;;;;9.90;2.58;;;;;;;25.14;55.63;100310.00;5000000;28;20022;-81
2023/09/03 09:38:43;;;;;;;7.23;2.53;;;;;;;25.48;55.48;100323.16;4999933;28;20105;-81
2023/09/03 09:41:25;;;;;;;7.73;2.37;;;;;;;25.72;53.13;100320.66;4997879;28;20129;-80
2023/09/03 09:43:51;;;;;;;7.22;1.77;;;;;;;25.92;51.86;100324.69;5000005;28;20045;-81
2023/09/03 09:46:30;;;;;;;5.95;2.00;;;;;;;25.84;50.54;100340.56;4999734;28;20069;-81
2023/09/03 09:48:57;;;;;;;5.43;1.73;;;;;;;25.85;49.07;100328.78;4998581;28;20104;-81
2023/09/03 09:51:24;;;;;;;6.97;1.92;;;;;;;25.77;49.11;100321.22;4998359;28;20014;-81
2023/09/03 09:53:56;;;;;;;6.85;1.90;;;;;;;25.79;47.97;100321.97;4999646;28;20113;-81
2023/09/03 09:56:26;;;;;;;6.45;1.92;;;;;;;25.90;47.69;100323.06;4999234;28;20026;-81
2023/09/03 09:58:51;;;;;;;10.05;2.03;;;;;;;26.12;47.73;100310.81;4999816;28;20034;-81
2023/09/03 10:01:16;;;;;;;7.70;1.90;;;;;;;26.35;47.80;100302.00;4999354;28;20026;-81
2023/09/03 10:03:46;;;;;;;6.33;2.33;;;;;;;26.56;46.59;100308.72;4998397;28;20061;-80
2023/09/03 10:06:17;;;;;;;5.88;2.08;;;;;;;26.70;46.52;100300.47;4999566;28;20010;-81
2023/09/03 10:08:47;;;;;;;5.32;1.63;;;;;;;26.73;46.74;100302.13;4999258;28;20074;-81
2023/09/03 10:11:13;;;;;;;5.57;2.00;;;;;;;26.73;46.05;100326.41;4998892;28;20030;-81
2023/09/03 10:13:42;;;;;;;8.27;1.80;;;;;;;26.92;45.29;100307.94;4999078;28;20484;-80
2023/09/03 10:16:09;;;;;;;8.88;1.60;;;;;;;26.90;44.61;100309.91;4999123;28;20488;-82
2023/09/03 10:18:38;;;;;;;8.77;1.70;;;;;;;26.76;44.23;100318.09;4997034;28;20034;-80
2023/09/03 10:21:06;;;;;;;7.75;2.00;;;;;;;26.59;44.32;100314.75;4998061;28;20395;-81
2023/09/03 10:23:39;;;;;;;5.28;1.73;;;;;;;26.56;43.56;100319.53;4999055;28;20061;-81
2023/09/03 10:26:06;;;;;;;5.47;1.60;;;;;;;26.50;43.73;100326.22;4998737;28;20033;-80
2023/09/03 10:28:36;;;;;;;6.68;2.00;;;;;;;26.40;44.05;100315.19;4999185;28;20034;-81
2023/09/03 10:31:03;;;;;;;6.37;1.50;;;;;;;26.46;43.71;100319.31;4998855;28;20395;-81
2023/09/03 10:33:28;;;;;;;7.13;1.90;;;;;;;26.68;43.64;100320.50;4998878;28;20030;-80
2023/09/03 10:36:20;;;;;;;7.30;1.93;;;;;;;26.96;42.71;100318.53;4998408;28;20082;-80
2023/09/03 10:38:46;;;;;;;7.43;1.80;;;;;;;27.35;43.52;100328.25;4998911;28;20265;-81
2023/09/03 10:41:19;;;;;;;5.43;1.60;;;;;;;27.66;42.31;100319.72;4994274;28;20031;-78
2023/09/03 10:43:46;;;;;;;7.45;1.90;;;;;;;27.91;40.76;100320.56;4998635;28;20030;-80
2023/09/03 10:46:12;;;;;;;6.38;1.95;;;;;;;28.12;40.29;100311.78;4997536;28;20034;-80
2023/09/03 10:48:38;;;;;;;6.33;1.40;;;;;;;28.11;39.22;100327.16;4998771;28;20077;-76
2023/09/03 10:51:04;;;;;;;9.10;1.70;;;;;;;28.23;38.86;100317.25;4998596;28;20105;-79
2023/09/03 10:53:36;;;;;;;7.85;1.90;;;;;;;28.14;39.01;100317.94;4997225;28;20451;-80
2023/09/03 10:56:10;;;;;;;5.93;1.77;;;;;;;27.98;38.89;100329.94;4998037;28;20108;-80
2023/09/03 10:59:01;;;;;;;8.05;3.38;;;;;;;27.73;39.45;100325.53;4998254;28;20026;-81
2023/09/03 11:01:31;;;;;;;5.97;1.73;;;;;;;27.65;39.65;100324.25;4998192;28;20475;-80
2023/09/03 11:04:02;;;;;;;6.68;1.88;;;;;;;27.48;39.94;100327.34;4998030;28;20060;-80
2023/09/03 11:06:30;;;;;;;7.53;1.83;;;;;;;27.42;40.11;100322.38;4997756;28;20439;-80
2023/09/03 11:09:02;;;;;;;5.60;1.52;;;;;;;27.16;40.62;100317.94;4998333;28;20468;-79
2023/09/03 11:11:33;;;;;;;7.57;1.80;;;;;;;27.17;39.88;100316.09;4997540;28;20100;-80
2023/09/03 11:13:59;;;;;;;5.73;2.30;;;;;;;27.26;40.01;100312.72;4998258;28;20097;-80
2023/09/03 11:16:31;;;;;;;5.68;2.38;;;;;;;27.32;38.89;100322.19;4997860;28;20030;-80
2023/09/03 11:18:57;;;;;;;7.18;3.13;;;;;;;27.41;38.78;100310.72;4995554;28;20120;-80
2023/09/03 11:21:26;;;;;;;5.95;2.05;;;;;;;27.43;38.87;100321.41;4997865;28;20061;-80
2023/09/03 11:23:58;;;;;;;6.17;1.70;;;;;;;27.44;38.47;100307.78;4997772;28;20029;-79
2023/09/03 11:26:23;;;;;;;7.47;1.95;;;;;;;27.42;39.31;100316.97;4997675;28;20101;-76